JST270 NZCH-NZHN
Flight info
| Callsign | JST270 |
|---|---|
| Flight time | 1h 2m |
| Altitude | 35000 |
| Route | GLENN Y175 OPABI Q126 HN |
| Aircraft | A20N/M-SDE2E3FGHIRWXY/LB1 |
Departure
| Time | 2026-04-28 22:49 |
|---|---|
| Airport | Christchurch International Airport (NZCH) |
Arrival
| Time | 2026-04-28 23:52 |
|---|---|
| Airport | Hamilton International Airport (NZHN) |
| Time | Latitude | Longitude | Altitude | Speed | Heading |
|---|---|---|---|---|---|
| 2026-04-28 22:19 | -43.48788 | 172.53812 | 110 ft | 0 kts | 107° |
| 2026-04-28 22:38 | -43.48785 | 172.53798 | 110 ft | 2 kts | 107° |
| 2026-04-28 22:38 | -43.48780 | 172.53778 | 110 ft | 2 kts | 107° |
| 2026-04-28 22:38 | -43.48776 | 172.53760 | 109 ft | 2 kts | 107° |
| 2026-04-28 22:39 | -43.48771 | 172.53740 | 109 ft | 2 kts | 107° |
| 2026-04-28 22:39 | -43.48766 | 172.53722 | 109 ft | 2 kts | 141° |
| 2026-04-28 22:39 | -43.48751 | 172.53714 | 109 ft | 2 kts | 188° |
| 2026-04-28 22:39 | -43.48743 | 172.53719 | 109 ft | 0 kts | 217° |
| 2026-04-28 22:40 | -43.48737 | 172.53726 | 109 ft | 0 kts | 220° |
| 2026-04-28 22:43 | -43.48741 | 172.53722 | 109 ft | 2 kts | 219° |
| 2026-04-28 22:43 | -43.48768 | 172.53691 | 109 ft | 7 kts | 218° |
| 2026-04-28 22:43 | -43.48814 | 172.53639 | 109 ft | 9 kts | 219° |
| 2026-04-28 22:44 | -43.48872 | 172.53572 | 109 ft | 12 kts | 220° |
| 2026-04-28 22:44 | -43.48945 | 172.53500 | 110 ft | 13 kts | 218° |
| 2026-04-28 22:44 | -43.49018 | 172.53418 | 111 ft | 14 kts | 219° |
| 2026-04-28 22:44 | -43.49095 | 172.53328 | 112 ft | 14 kts | 220° |
| 2026-04-28 22:45 | -43.49175 | 172.53236 | 114 ft | 15 kts | 219° |
| 2026-04-28 22:45 | -43.49254 | 172.53143 | 117 ft | 14 kts | 220° |
| 2026-04-28 22:45 | -43.49331 | 172.53055 | 120 ft | 13 kts | 219° |
| 2026-04-28 22:45 | -43.49403 | 172.52972 | 123 ft | 13 kts | 219° |
| 2026-04-28 22:46 | -43.49469 | 172.52898 | 125 ft | 10 kts | 219° |
| 2026-04-28 22:46 | -43.49510 | 172.52824 | 127 ft | 9 kts | 257° |
| 2026-04-28 22:46 | -43.49508 | 172.52743 | 127 ft | 5 kts | 274° |
| 2026-04-28 22:46 | -43.49507 | 172.52724 | 127 ft | 0 kts | 273° |
| 2026-04-28 22:47 | -43.49507 | 172.52714 | 127 ft | 2 kts | 272° |
| 2026-04-28 22:47 | -43.49506 | 172.52686 | 128 ft | 4 kts | 272° |
| 2026-04-28 22:47 | -43.49502 | 172.52634 | 128 ft | 6 kts | 281° |
| 2026-04-28 22:48 | -43.49472 | 172.52576 | 128 ft | 6 kts | 337° |
| 2026-04-28 22:48 | -43.49430 | 172.52594 | 127 ft | 0 kts | 39° |
| 2026-04-28 22:48 | -43.49430 | 172.52596 | 127 ft | 0 kts | 39° |
| 2026-04-28 22:48 | -43.49406 | 172.52622 | 127 ft | 17 kts | 40° |
| 2026-04-28 22:49 | -43.49086 | 172.52994 | 120 ft | 98 kts | 40° |
| 2026-04-28 22:49 | -43.48388 | 172.53799 | 113 ft | 160 kts | 39° |
| 2026-04-28 22:49 | -43.47530 | 172.54800 | 665 ft | 165 kts | 38° |
| 2026-04-28 22:49 | -43.46564 | 172.55713 | 1294 ft | 175 kts | 24° |
| 2026-04-28 22:50 | -43.45410 | 172.56366 | 1863 ft | 190 kts | 18° |
| 2026-04-28 22:50 | -43.44136 | 172.57111 | 2352 ft | 213 kts | 20° |
| 2026-04-28 22:50 | -43.42729 | 172.57967 | 2929 ft | 233 kts | 21° |
| 2026-04-28 22:50 | -43.41201 | 172.58926 | 3550 ft | 251 kts | 22° |
| 2026-04-28 22:51 | -43.39566 | 172.59973 | 4286 ft | 264 kts | 22° |
| 2026-04-28 22:51 | -43.37909 | 172.61043 | 5193 ft | 270 kts | 22° |
| 2026-04-28 22:51 | -43.36206 | 172.62141 | 6109 ft | 275 kts | 22° |
| 2026-04-28 22:51 | -43.34467 | 172.63266 | 7006 ft | 281 kts | 22° |
| 2026-04-28 22:52 | -43.32719 | 172.64410 | 7882 ft | 286 kts | 24° |
| 2026-04-28 22:52 | -43.30924 | 172.65637 | 8768 ft | 290 kts | 25° |
| 2026-04-28 22:52 | -43.29134 | 172.66872 | 9604 ft | 295 kts | 25° |
| 2026-04-28 22:52 | -43.27284 | 172.68147 | 10415 ft | 301 kts | 25° |
| 2026-04-28 22:53 | -43.25382 | 172.69455 | 10928 ft | 317 kts | 25° |
| 2026-04-28 22:53 | -43.23336 | 172.70856 | 11372 ft | 335 kts | 25° |
| 2026-04-28 22:53 | -43.21224 | 172.72301 | 11889 ft | 349 kts | 25° |
| 2026-04-28 22:53 | -43.19030 | 172.73802 | 12677 ft | 353 kts | 25° |
| 2026-04-28 22:54 | -43.16856 | 172.75290 | 13481 ft | 356 kts | 24° |
| 2026-04-28 22:54 | -43.14630 | 172.76808 | 14277 ft | 358 kts | 24° |
| 2026-04-28 22:54 | -43.12416 | 172.78314 | 15068 ft | 361 kts | 24° |
| 2026-04-28 22:54 | -43.10145 | 172.79862 | 15833 ft | 364 kts | 24° |
| 2026-04-28 22:55 | -43.07900 | 172.81389 | 16560 ft | 367 kts | 24° |
| 2026-04-28 22:55 | -43.05606 | 172.82947 | 17287 ft | 369 kts | 24° |
| 2026-04-28 22:55 | -43.03312 | 172.84506 | 17978 ft | 372 kts | 24° |
| 2026-04-28 22:55 | -43.00962 | 172.86098 | 18634 ft | 376 kts | 24° |
| 2026-04-28 22:56 | -42.98622 | 172.87682 | 19273 ft | 380 kts | 24° |
| 2026-04-28 22:56 | -42.96267 | 172.89275 | 19895 ft | 383 kts | 24° |
| 2026-04-28 22:56 | -42.93858 | 172.90904 | 20501 ft | 387 kts | 24° |
| 2026-04-28 22:56 | -42.91415 | 172.92418 | 21074 ft | 391 kts | 20° |
| 2026-04-28 22:57 | -42.88864 | 172.93745 | 21651 ft | 394 kts | 17° |
| 2026-04-28 22:57 | -42.86273 | 172.94885 | 22215 ft | 397 kts | 15° |
| 2026-04-28 22:57 | -42.83603 | 172.96034 | 22781 ft | 401 kts | 15° |
| 2026-04-28 22:57 | -42.80945 | 172.97176 | 23331 ft | 404 kts | 15° |
| 2026-04-28 22:58 | -42.78261 | 172.98329 | 23886 ft | 407 kts | 16° |
| 2026-04-28 22:58 | -42.75576 | 172.99480 | 24443 ft | 409 kts | 16° |
| 2026-04-28 22:58 | -42.72853 | 173.00647 | 24991 ft | 411 kts | 16° |
| 2026-04-28 22:58 | -42.70113 | 173.01820 | 25525 ft | 413 kts | 16° |
| 2026-04-28 22:59 | -42.67389 | 173.02988 | 26020 ft | 416 kts | 17° |
| 2026-04-28 22:59 | -42.64615 | 173.04176 | 26494 ft | 418 kts | 17° |
| 2026-04-28 22:59 | -42.61844 | 173.05362 | 26945 ft | 421 kts | 17° |
| 2026-04-28 22:59 | -42.59019 | 173.06569 | 27380 ft | 423 kts | 17° |
| 2026-04-28 23:00 | -42.56218 | 173.07765 | 27799 ft | 426 kts | 17° |
| 2026-04-28 23:00 | -42.53393 | 173.08969 | 28206 ft | 428 kts | 17° |
| 2026-04-28 23:00 | -42.50565 | 173.10175 | 28669 ft | 429 kts | 17° |
| 2026-04-28 23:00 | -42.47727 | 173.11383 | 29242 ft | 427 kts | 17° |
| 2026-04-28 23:01 | -42.44883 | 173.12592 | 29826 ft | 424 kts | 17° |
| 2026-04-28 23:01 | -42.42100 | 173.13776 | 30405 ft | 422 kts | 17° |
| 2026-04-28 23:01 | -42.39299 | 173.14964 | 30964 ft | 420 kts | 17° |
| 2026-04-28 23:01 | -42.36549 | 173.16130 | 31485 ft | 418 kts | 17° |
| 2026-04-28 23:02 | -42.33766 | 173.17311 | 31983 ft | 417 kts | 17° |
| 2026-04-28 23:02 | -42.31025 | 173.18472 | 32439 ft | 416 kts | 17° |
| 2026-04-28 23:02 | -42.28254 | 173.19643 | 32878 ft | 416 kts | 18° |
| 2026-04-28 23:02 | -42.25512 | 173.20801 | 33290 ft | 415 kts | 18° |
| 2026-04-28 23:03 | -42.22760 | 173.21964 | 33685 ft | 415 kts | 18° |
| 2026-04-28 23:03 | -42.19988 | 173.23132 | 34022 ft | 416 kts | 18° |
| 2026-04-28 23:03 | -42.17237 | 173.24291 | 34330 ft | 417 kts | 18° |
| 2026-04-28 23:03 | -42.14475 | 173.25453 | 34631 ft | 419 kts | 18° |
| 2026-04-28 23:04 | -42.11700 | 173.26621 | 34907 ft | 420 kts | 18° |
| 2026-04-28 23:04 | -42.06076 | 173.28984 | 35217 ft | 423 kts | 18° |
| 2026-04-28 23:04 | -42.03287 | 173.30153 | 35218 ft | 423 kts | 18° |
| 2026-04-28 23:05 | -41.97674 | 173.32503 | 35224 ft | 424 kts | 18° |
| 2026-04-28 23:05 | -41.92046 | 173.34854 | 35225 ft | 423 kts | 18° |
| 2026-04-28 23:06 | -41.86423 | 173.37199 | 35227 ft | 424 kts | 18° |
| 2026-04-28 23:06 | -41.80801 | 173.39540 | 35232 ft | 424 kts | 18° |
| 2026-04-28 23:07 | -41.75185 | 173.41875 | 35236 ft | 424 kts | 18° |
| 2026-04-28 23:07 | -41.69558 | 173.44279 | 35232 ft | 423 kts | 20° |
| 2026-04-28 23:08 | -41.64061 | 173.47008 | 35233 ft | 423 kts | 21° |
| 2026-04-28 23:08 | -41.58557 | 173.49738 | 35227 ft | 423 kts | 21° |
| 2026-04-28 23:09 | -41.53045 | 173.52467 | 35228 ft | 423 kts | 21° |
| 2026-04-28 23:09 | -41.47542 | 173.55188 | 35222 ft | 424 kts | 21° |
| 2026-04-28 23:10 | -41.42022 | 173.57913 | 35225 ft | 424 kts | 21° |
| 2026-04-28 23:10 | -41.36495 | 173.60637 | 35227 ft | 424 kts | 21° |
| 2026-04-28 23:11 | -41.30983 | 173.63348 | 35233 ft | 423 kts | 21° |
| 2026-04-28 23:11 | -41.25470 | 173.66055 | 35229 ft | 423 kts | 21° |
| 2026-04-28 23:12 | -41.19912 | 173.68777 | 35229 ft | 424 kts | 21° |
| 2026-04-28 23:12 | -41.14404 | 173.71471 | 35232 ft | 424 kts | 21° |
| 2026-04-28 23:13 | -41.08869 | 173.74175 | 35232 ft | 425 kts | 21° |
| 2026-04-28 23:13 | -41.03352 | 173.76862 | 35236 ft | 424 kts | 21° |
| 2026-04-28 23:14 | -40.97797 | 173.79565 | 35242 ft | 425 kts | 21° |
| 2026-04-28 23:14 | -40.92263 | 173.82256 | 35240 ft | 425 kts | 21° |
| 2026-04-28 23:15 | -40.86699 | 173.84953 | 35242 ft | 425 kts | 21° |
| 2026-04-28 23:15 | -40.81144 | 173.87640 | 35247 ft | 426 kts | 21° |
| 2026-04-28 23:16 | -40.75589 | 173.90323 | 35258 ft | 425 kts | 21° |
| 2026-04-28 23:16 | -40.70049 | 173.92995 | 35269 ft | 425 kts | 21° |
| 2026-04-28 23:17 | -40.64498 | 173.95666 | 35267 ft | 425 kts | 21° |
| 2026-04-28 23:17 | -40.58965 | 173.98326 | 35276 ft | 426 kts | 21° |
| 2026-04-28 23:18 | -40.53421 | 174.00984 | 35278 ft | 426 kts | 21° |
| 2026-04-28 23:18 | -40.47838 | 174.03656 | 35286 ft | 425 kts | 21° |
| 2026-04-28 23:19 | -40.42280 | 174.06311 | 35282 ft | 425 kts | 21° |
| 2026-04-28 23:19 | -40.36730 | 174.08960 | 35280 ft | 426 kts | 21° |
| 2026-04-28 23:20 | -40.31188 | 174.11600 | 35173 ft | 426 kts | 21° |
| 2026-04-28 23:20 | -40.25609 | 174.14255 | 35262 ft | 427 kts | 21° |
| 2026-04-28 23:21 | -40.20018 | 174.16910 | 35287 ft | 427 kts | 21° |
| 2026-04-28 23:21 | -40.14469 | 174.19539 | 35297 ft | 428 kts | 21° |
| 2026-04-28 23:22 | -40.08859 | 174.22194 | 35294 ft | 428 kts | 21° |
| 2026-04-28 23:22 | -40.03286 | 174.24826 | 35295 ft | 428 kts | 21° |
| 2026-04-28 23:23 | -39.97671 | 174.27475 | 35306 ft | 428 kts | 21° |
| 2026-04-28 23:23 | -39.92093 | 174.30101 | 35309 ft | 428 kts | 21° |
| 2026-04-28 23:24 | -39.86549 | 174.32703 | 35314 ft | 427 kts | 21° |
| 2026-04-28 23:24 | -39.80902 | 174.35349 | 35322 ft | 427 kts | 21° |
| 2026-04-28 23:25 | -39.75357 | 174.37946 | 35332 ft | 426 kts | 21° |
| 2026-04-28 23:25 | -39.69788 | 174.40547 | 35334 ft | 425 kts | 20° |
| 2026-04-28 23:26 | -39.64234 | 174.43138 | 35338 ft | 425 kts | 20° |
| 2026-04-28 23:26 | -39.58680 | 174.45725 | 35343 ft | 424 kts | 20° |
| 2026-04-28 23:27 | -39.53131 | 174.48302 | 35342 ft | 424 kts | 20° |
| 2026-04-28 23:27 | -39.47584 | 174.50882 | 35349 ft | 424 kts | 19° |
| 2026-04-28 23:28 | -39.42013 | 174.53464 | 35353 ft | 426 kts | 19° |
| 2026-04-28 23:28 | -39.36432 | 174.56039 | 35106 ft | 426 kts | 19° |
| 2026-04-28 23:29 | -39.33659 | 174.57321 | 34834 ft | 425 kts | 18° |
| 2026-04-28 23:29 | -39.30897 | 174.58595 | 34412 ft | 425 kts | 18° |
| 2026-04-28 23:29 | -39.28096 | 174.59886 | 33812 ft | 426 kts | 18° |
| 2026-04-28 23:29 | -39.25323 | 174.61163 | 33114 ft | 429 kts | 18° |
| 2026-04-28 23:30 | -39.22488 | 174.62466 | 32396 ft | 431 kts | 18° |
| 2026-04-28 23:30 | -39.19677 | 174.63759 | 31699 ft | 433 kts | 18° |
| 2026-04-28 23:30 | -39.16854 | 174.65057 | 30987 ft | 434 kts | 17° |
| 2026-04-28 23:30 | -39.14027 | 174.66354 | 30297 ft | 435 kts | 17° |
| 2026-04-28 23:31 | -39.11172 | 174.67664 | 29562 ft | 436 kts | 17° |
| 2026-04-28 23:31 | -39.08327 | 174.68968 | 28765 ft | 438 kts | 17° |
| 2026-04-28 23:31 | -39.05426 | 174.70296 | 28000 ft | 439 kts | 17° |
| 2026-04-28 23:31 | -39.02591 | 174.71593 | 27451 ft | 435 kts | 17° |
| 2026-04-28 23:32 | -38.99773 | 174.72882 | 26910 ft | 430 kts | 17° |
| 2026-04-28 23:32 | -38.96973 | 174.74161 | 26371 ft | 427 kts | 16° |
| 2026-04-28 23:32 | -38.94169 | 174.75439 | 25807 ft | 424 kts | 16° |
| 2026-04-28 23:32 | -38.91423 | 174.76691 | 25247 ft | 422 kts | 16° |
| 2026-04-28 23:33 | -38.88660 | 174.77949 | 24693 ft | 419 kts | 16° |
| 2026-04-28 23:33 | -38.85883 | 174.79211 | 24138 ft | 416 kts | 16° |
| 2026-04-28 23:33 | -38.83187 | 174.80450 | 23615 ft | 414 kts | 17° |
| 2026-04-28 23:33 | -38.80531 | 174.81841 | 23086 ft | 412 kts | 20° |
| 2026-04-28 23:34 | -38.77915 | 174.83275 | 22567 ft | 409 kts | 20° |
| 2026-04-28 23:34 | -38.75319 | 174.84701 | 22053 ft | 406 kts | 20° |
| 2026-04-28 23:34 | -38.72748 | 174.86114 | 21549 ft | 403 kts | 20° |
| 2026-04-28 23:34 | -38.70175 | 174.87526 | 21031 ft | 400 kts | 20° |
| 2026-04-28 23:35 | -38.67617 | 174.88927 | 20514 ft | 398 kts | 20° |
| 2026-04-28 23:35 | -38.65077 | 174.90317 | 20001 ft | 395 kts | 20° |
| 2026-04-28 23:35 | -38.62566 | 174.91692 | 19504 ft | 392 kts | 20° |
| 2026-04-28 23:35 | -38.60072 | 174.93056 | 19000 ft | 389 kts | 20° |
| 2026-04-28 23:36 | -38.57595 | 174.94406 | 18502 ft | 386 kts | 20° |
| 2026-04-28 23:36 | -38.55129 | 174.95752 | 18017 ft | 384 kts | 20° |
| 2026-04-28 23:36 | -38.52684 | 174.97084 | 17532 ft | 381 kts | 20° |
| 2026-04-28 23:36 | -38.50261 | 174.98404 | 17057 ft | 378 kts | 20° |
| 2026-04-28 23:37 | -38.47867 | 174.99705 | 16599 ft | 375 kts | 20° |
| 2026-04-28 23:37 | -38.45474 | 175.01009 | 16125 ft | 372 kts | 20° |
| 2026-04-28 23:37 | -38.43106 | 175.02295 | 15650 ft | 370 kts | 20° |
| 2026-04-28 23:37 | -38.40767 | 175.03566 | 15185 ft | 367 kts | 20° |
| 2026-04-28 23:38 | -38.38433 | 175.04835 | 14728 ft | 364 kts | 20° |
| 2026-04-28 23:38 | -38.36096 | 175.06102 | 14267 ft | 361 kts | 21° |
| 2026-04-28 23:38 | -38.33819 | 175.07336 | 13840 ft | 357 kts | 21° |
| 2026-04-28 23:38 | -38.31549 | 175.08566 | 13397 ft | 354 kts | 21° |
| 2026-04-28 23:39 | -38.29275 | 175.09796 | 12940 ft | 351 kts | 21° |
| 2026-04-28 23:39 | -38.27041 | 175.11006 | 12407 ft | 351 kts | 21° |
| 2026-04-28 23:39 | -38.24790 | 175.12201 | 11807 ft | 352 kts | 19° |
| 2026-04-28 23:39 | -38.22480 | 175.13208 | 11214 ft | 351 kts | 15° |
| 2026-04-28 23:40 | -38.20131 | 175.13977 | 10694 ft | 348 kts | 12° |
| 2026-04-28 23:40 | -38.17812 | 175.14648 | 10428 ft | 337 kts | 11° |
| 2026-04-28 23:40 | -38.15559 | 175.15294 | 10271 ft | 323 kts | 11° |
| 2026-04-28 23:40 | -38.13427 | 175.15904 | 10122 ft | 310 kts | 11° |
| 2026-04-28 23:41 | -38.11343 | 175.16501 | 9982 ft | 298 kts | 11° |
| 2026-04-28 23:41 | -38.09357 | 175.17067 | 9689 ft | 292 kts | 11° |
| 2026-04-28 23:41 | -38.07383 | 175.17631 | 9310 ft | 290 kts | 11° |
| 2026-04-28 23:41 | -38.05433 | 175.18190 | 8948 ft | 288 kts | 11° |
| 2026-04-28 23:42 | -38.03479 | 175.18749 | 8591 ft | 285 kts | 11° |
| 2026-04-28 23:42 | -38.01569 | 175.19296 | 8244 ft | 282 kts | 11° |
| 2026-04-28 23:42 | -37.99657 | 175.19842 | 7903 ft | 280 kts | 11° |
| 2026-04-28 23:42 | -37.97782 | 175.20424 | 7555 ft | 278 kts | 14° |
| 2026-04-28 23:43 | -37.95927 | 175.21092 | 7209 ft | 275 kts | 15° |
| 2026-04-28 23:43 | -37.94099 | 175.21761 | 6962 ft | 269 kts | 15° |
| 2026-04-28 23:43 | -37.92332 | 175.22411 | 6913 ft | 254 kts | 15° |
| 2026-04-28 23:43 | -37.90691 | 175.23010 | 6942 ft | 239 kts | 15° |
| 2026-04-28 23:44 | -37.89145 | 175.23576 | 6915 ft | 229 kts | 15° |
| 2026-04-28 23:44 | -37.87589 | 175.24142 | 6542 ft | 233 kts | 14° |
| 2026-04-28 23:44 | -37.86034 | 175.24705 | 6127 ft | 238 kts | 15° |
| 2026-04-28 23:44 | -37.84425 | 175.25290 | 5684 ft | 240 kts | 14° |
| 2026-04-28 23:45 | -37.82826 | 175.25871 | 5257 ft | 239 kts | 14° |
| 2026-04-28 23:45 | -37.81226 | 175.26453 | 4899 ft | 235 kts | 14° |
| 2026-04-28 23:45 | -37.79677 | 175.27016 | 4597 ft | 229 kts | 15° |
| 2026-04-28 23:45 | -37.78178 | 175.27559 | 4331 ft | 223 kts | 15° |
| 2026-04-28 23:46 | -37.76699 | 175.28098 | 4042 ft | 218 kts | 14° |
| 2026-04-28 23:46 | -37.75270 | 175.28616 | 3793 ft | 211 kts | 15° |
| 2026-04-28 23:46 | -37.73864 | 175.29126 | 3542 ft | 205 kts | 15° |
| 2026-04-28 23:46 | -37.72539 | 175.29675 | 3285 ft | 200 kts | 28° |
| 2026-04-28 23:47 | -37.71592 | 175.30917 | 3002 ft | 197 kts | 66° |
| 2026-04-28 23:47 | -37.71411 | 175.32591 | 2830 ft | 194 kts | 98° |
| 2026-04-28 23:47 | -37.71762 | 175.34190 | 2714 ft | 180 kts | 106° |
| 2026-04-28 23:47 | -37.72123 | 175.35646 | 2608 ft | 167 kts | 106° |
| 2026-04-28 23:48 | -37.72470 | 175.36978 | 2493 ft | 155 kts | 116° |
| 2026-04-28 23:48 | -37.73249 | 175.37822 | 2435 ft | 153 kts | 167° |
| 2026-04-28 23:48 | -37.74311 | 175.37811 | 2420 ft | 154 kts | 193° |
| 2026-04-28 23:48 | -37.75335 | 175.37450 | 2218 ft | 148 kts | 201° |
| 2026-04-28 23:49 | -37.76276 | 175.37048 | 1984 ft | 138 kts | 200° |
| 2026-04-28 23:49 | -37.77179 | 175.36687 | 1815 ft | 136 kts | 198° |
| 2026-04-28 23:49 | -37.78089 | 175.36346 | 1643 ft | 136 kts | 198° |
| 2026-04-28 23:49 | -37.78995 | 175.36020 | 1469 ft | 134 kts | 199° |
| 2026-04-28 23:50 | -37.79892 | 175.35692 | 1271 ft | 133 kts | 196° |
| 2026-04-28 23:50 | -37.80779 | 175.35371 | 1117 ft | 133 kts | 197° |
| 2026-04-28 23:50 | -37.81674 | 175.35048 | 931 ft | 132 kts | 197° |
| 2026-04-28 23:50 | -37.82554 | 175.34727 | 756 ft | 132 kts | 197° |
| 2026-04-28 23:51 | -37.83441 | 175.34409 | 582 ft | 131 kts | 197° |
| 2026-04-28 23:51 | -37.84313 | 175.34094 | 420 ft | 130 kts | 197° |
| 2026-04-28 23:51 | -37.85180 | 175.33768 | 275 ft | 129 kts | 197° |
| 2026-04-28 23:51 | -37.86028 | 175.33456 | 190 ft | 122 kts | 197° |
| 2026-04-28 23:52 | -37.86591 | 175.33252 | 184 ft | 55 kts | 195° |
| 2026-04-28 23:52 | -37.86942 | 175.33125 | 183 ft | 47 kts | 196° |
| 2026-04-28 23:52 | -37.87196 | 175.33032 | 184 ft | 26 kts | 198° |
| 2026-04-28 23:52 | -37.87356 | 175.32976 | 184 ft | 20 kts | 196° |
| 2026-04-28 23:53 | -37.87422 | 175.32962 | 183 ft | 7 kts | 163° |
| 2026-04-28 23:53 | -37.87470 | 175.32965 | 182 ft | 6 kts | 233° |
| 2026-04-28 23:53 | -37.87451 | 175.32930 | 181 ft | 7 kts | 349° |
| 2026-04-28 23:53 | -37.87408 | 175.32951 | 183 ft | 5 kts | 25° |
| 2026-04-28 23:54 | -37.87366 | 175.32971 | 184 ft | 7 kts | 18° |
| 2026-04-28 23:54 | -37.87307 | 175.32993 | 185 ft | 10 kts | 16° |
| 2026-04-28 23:54 | -37.87228 | 175.33022 | 185 ft | 13 kts | 17° |
| 2026-04-28 23:54 | -37.87128 | 175.33058 | 184 ft | 16 kts | 16° |
| 2026-04-28 23:55 | -37.87009 | 175.33102 | 183 ft | 19 kts | 17° |
| 2026-04-28 23:55 | -37.86875 | 175.33153 | 183 ft | 20 kts | 16° |
| 2026-04-28 23:55 | -37.86738 | 175.33199 | 183 ft | 20 kts | 15° |
| 2026-04-28 23:55 | -37.86610 | 175.33243 | 184 ft | 15 kts | 16° |
| 2026-04-28 23:56 | -37.86547 | 175.33276 | 185 ft | 8 kts | 48° |
| 2026-04-28 23:56 | -37.86544 | 175.33353 | 184 ft | 10 kts | 106° |
| 2026-04-28 23:56 | -37.86564 | 175.33441 | 184 ft | 8 kts | 106° |
| 2026-04-28 23:56 | -37.86577 | 175.33501 | 184 ft | 1 kts | 92° |
| 2026-04-28 23:57 | -37.86572 | 175.33513 | 184 ft | 2 kts | 43° |
| 2026-04-28 23:57 | -37.86551 | 175.33519 | 184 ft | 4 kts | 7° |
| 2026-04-28 23:57 | -37.86524 | 175.33525 | 184 ft | 3 kts | 10° |
| 2026-04-28 23:57 | -37.86499 | 175.33539 | 184 ft | 4 kts | 52° |
| 2026-04-28 23:58 | -37.86498 | 175.33569 | 184 ft | 3 kts | 105° |
| 2026-04-28 23:58 | -37.86502 | 175.33583 | 184 ft | 0 kts | 106° |
| 2026-04-28 23:58 | -37.86502 | 175.33585 | 184 ft | 0 kts | 106° |